createdAt,value
2022-11-29T00:00:49.903Z,94966.59
2022-11-29T00:03:16.632Z,94975.22
2022-11-29T00:05:43.409Z,94976.28
2022-11-29T00:08:09.998Z,94973.34
2022-11-29T00:10:37.596Z,94973.38
2022-11-29T00:13:04.798Z,94986.88
2022-11-29T00:15:36.622Z,94975.63
2022-11-29T00:18:03.562Z,94980.13
2022-11-29T00:20:30.275Z,94969.66
2022-11-29T00:22:56.900Z,94981.66
2022-11-29T00:25:23.851Z,94979.00
2022-11-29T00:27:51.667Z,94963.63
2022-11-29T00:30:19.819Z,94971.88
2022-11-29T00:32:46.617Z,94967.31
2022-11-29T00:35:13.819Z,94977.41
2022-11-29T00:37:40.383Z,94963.50
2022-11-29T00:40:07.635Z,94967.88
2022-11-29T00:42:34.197Z,94969.78
2022-11-29T00:45:00.737Z,94976.13
2022-11-29T00:47:27.220Z,94960.28
2022-11-29T00:49:53.953Z,94970.38
2022-11-29T00:52:20.523Z,94970.75
2022-11-29T00:54:47.135Z,94967.72
2022-11-29T00:57:13.832Z,94967.78
2022-11-29T00:59:40.512Z,94969.94
2022-11-29T01:02:07.182Z,94960.69
2022-11-29T01:04:34.035Z,94965.84
2022-11-29T01:07:00.562Z,94962.75
2022-11-29T01:09:27.082Z,94969.19
2022-11-29T01:11:53.649Z,94962.38
2022-11-29T01:14:20.202Z,94954.97
2022-11-29T01:16:46.807Z,94963.22
2022-11-29T01:19:13.407Z,94975.94
2022-11-29T01:21:40.119Z,94961.19
2022-11-29T01:24:06.707Z,94954.91
2022-11-29T01:26:33.594Z,94963.81
2022-11-29T01:31:44.844Z,94960.59
2022-11-29T01:34:11.510Z,94958.41
2022-11-29T01:36:38.028Z,94964.50
2022-11-29T01:39:05.907Z,94962.91
2022-11-29T01:41:35.250Z,94965.59
2022-11-29T01:44:14.047Z,94971.13
2022-11-29T01:46:43.335Z,94971.41
2022-11-29T01:49:31.678Z,94964.44
2022-11-29T01:51:59.858Z,94957.91
2022-11-29T01:54:27.251Z,94967.34
2022-11-29T01:56:54.168Z,94956.50
2022-11-29T01:59:23.915Z,94962.13
2022-11-29T02:01:52.049Z,94960.31
2022-11-29T02:04:19.454Z,94953.50
2022-11-29T02:06:46.425Z,94947.16
2022-11-29T02:09:31.317Z,94961.41
2022-11-29T02:12:14.455Z,94954.66
2022-11-29T02:15:07.077Z,94935.13
2022-11-29T02:17:44.271Z,94962.97
2022-11-29T02:20:35.293Z,94951.72
2022-11-29T02:23:37.356Z,94962.22
2022-11-29T02:26:36.405Z,94957.69
2022-11-29T02:29:29.660Z,94960.09
2022-11-29T02:31:56.184Z,94953.78
2022-11-29T02:34:37.873Z,94952.91
2022-11-29T02:37:46.168Z,94949.84
2022-11-29T02:40:51.190Z,94954.13
2022-11-29T02:43:40.503Z,94962.81
2022-11-29T02:46:34.882Z,94958.13
2022-11-29T02:49:14.317Z,94953.97
2022-11-29T02:51:55.633Z,94963.06
2022-11-29T02:54:50.602Z,94957.75
2022-11-29T02:57:33.329Z,94957.00
2022-11-29T03:00:08.016Z,94954.66
2022-11-29T03:02:40.848Z,94961.56
2022-11-29T03:05:07.325Z,94964.50
2022-11-29T03:07:39.582Z,94959.25
2022-11-29T03:10:24.922Z,94953.59
2022-11-29T03:12:54.208Z,94958.09
2022-11-29T03:15:26.717Z,94964.94
2022-11-29T03:17:59.300Z,94968.31
2022-11-29T03:20:45.460Z,94964.31
2022-11-29T03:23:33.857Z,94971.66
2022-11-29T03:26:11.476Z,94959.31
2022-11-29T03:29:07.792Z,94973.56
2022-11-29T03:31:45.130Z,94970.59
2022-11-29T03:34:42.043Z,94974.97
2022-11-29T03:37:26.051Z,94970.53
2022-11-29T03:40:02.356Z,94957.88
2022-11-29T03:42:38.824Z,94962.47
2022-11-29T03:45:10.800Z,94966.31
2022-11-29T03:47:48.786Z,94970.00
2022-11-29T03:50:22.390Z,94973.78
2022-11-29T03:53:34.172Z,94962.59
2022-11-29T03:56:03.152Z,94968.53
2022-11-29T03:59:01.644Z,94965.59
2022-11-29T04:01:45.491Z,94965.91
2022-11-29T04:04:39.204Z,94962.91
2022-11-29T04:07:47.431Z,94973.81
2022-11-29T04:10:17.054Z,94966.31
2022-11-29T04:13:14.779Z,94967.69
2022-11-29T04:16:00.099Z,94970.47
2022-11-29T04:19:04.554Z,94964.56
2022-11-29T04:21:38.217Z,94974.34
2022-11-29T04:24:35.773Z,94969.88
2022-11-29T04:27:11.197Z,94969.84
2022-11-29T04:30:02.287Z,94972.13
2022-11-29T04:32:59.807Z,94975.19
2022-11-29T04:35:56.944Z,94984.38
2022-11-29T04:38:42.164Z,94989.63
2022-11-29T04:41:17.896Z,94986.66
2022-11-29T04:43:57.568Z,94995.63
2022-11-29T04:47:06.050Z,94985.34
2022-11-29T04:49:55.972Z,94985.59
2022-11-29T04:52:41.379Z,94992.91
2022-11-29T04:55:35.375Z,94995.19
2022-11-29T04:58:29.718Z,94990.81
2022-11-29T05:00:59.157Z,94993.00
2022-11-29T05:03:35.987Z,94991.44
2022-11-29T05:06:30.448Z,95005.09
2022-11-29T05:09:10.433Z,95001.81
2022-11-29T05:12:18.547Z,95002.47
2022-11-29T05:15:24.729Z,95008.63
2022-11-29T05:18:16.646Z,95013.84
2022-11-29T05:21:30.736Z,95010.81
2022-11-29T05:24:03.431Z,95012.34
2022-11-29T05:26:38.472Z,95008.03
2022-11-29T05:29:16.947Z,95013.34
2022-11-29T05:32:21.149Z,95012.34
2022-11-29T05:35:01.127Z,95006.31
2022-11-29T05:37:49.589Z,95015.47
2022-11-29T05:40:52.200Z,95017.88
2022-11-29T05:43:38.854Z,95009.56
2022-11-29T05:46:18.649Z,95018.94
2022-11-29T05:49:20.030Z,95021.38
2022-11-29T05:52:24.341Z,95016.91
2022-11-29T05:55:11.832Z,95023.13
2022-11-29T05:57:57.049Z,95027.28
2022-11-29T06:00:26.999Z,95022.19
2022-11-29T06:03:19.196Z,95027.31
2022-11-29T06:05:57.679Z,95025.28
2022-11-29T06:08:39.988Z,95027.59
2022-11-29T06:11:17.786Z,95026.38
2022-11-29T06:14:01.109Z,95025.00
2022-11-29T06:16:50.950Z,95032.44
2022-11-29T06:20:00.193Z,95021.28
2022-11-29T06:22:50.456Z,95030.34
2022-11-29T06:25:50.891Z,95039.28
2022-11-29T06:28:26.583Z,95029.56
2022-11-29T06:30:55.891Z,95040.91
2022-11-29T06:33:28.888Z,95042.56
2022-11-29T06:36:16.628Z,95044.00
2022-11-29T06:38:43.469Z,95042.94
2022-11-29T06:41:18.377Z,95046.66
2022-11-29T06:43:45.204Z,95044.63
2022-11-29T06:46:47.198Z,95055.09
2022-11-29T06:49:25.800Z,95049.94
2022-11-29T06:51:58.528Z,95059.75
2022-11-29T06:54:39.018Z,95051.31
2022-11-29T06:57:22.192Z,95054.56
2022-11-29T06:59:54.888Z,95058.03
2022-11-29T07:02:35.314Z,95060.78
2022-11-29T07:05:20.458Z,95055.19
2022-11-29T07:07:48.454Z,95049.22
2022-11-29T07:10:18.470Z,95053.72
2022-11-29T07:12:47.506Z,95053.78
2022-11-29T07:15:20.350Z,95057.56
2022-11-29T07:18:25.112Z,95057.19
2022-11-29T07:21:09.809Z,95068.84
2022-11-29T07:23:52.712Z,95073.28
2022-11-29T07:26:29.413Z,95068.16
2022-11-29T07:29:01.957Z,95068.91
2022-11-29T07:31:48.664Z,95070.44
2022-11-29T07:34:25.948Z,95072.81
2022-11-29T07:37:23.779Z,95074.06
2022-11-29T07:40:02.746Z,95076.00
2022-11-29T07:43:07.025Z,95077.56
2022-11-29T07:45:37.890Z,95077.59
2022-11-29T07:48:05.248Z,95083.59
2022-11-29T07:50:31.837Z,95078.22
2022-11-29T07:52:59.987Z,95077.47
2022-11-29T07:55:27.373Z,95075.22
2022-11-29T07:57:53.915Z,95075.41
2022-11-29T08:00:21.507Z,95080.06
2022-11-29T08:02:49.524Z,95086.09
2022-11-29T08:05:16.577Z,95094.19
2022-11-29T08:07:43.717Z,95088.91
2022-11-29T08:10:14.412Z,95090.47
2022-11-29T08:12:50.177Z,95087.94
2022-11-29T08:15:18.583Z,95087.50
2022-11-29T08:17:45.311Z,95085.97
2022-11-29T08:20:13.978Z,95081.44
2022-11-29T08:22:40.558Z,95095.69
2022-11-29T08:25:08.257Z,95093.09
2022-11-29T08:27:36.544Z,95092.75
2022-11-29T08:30:04.270Z,95095.06
2022-11-29T08:32:30.781Z,95102.75
2022-11-29T08:34:57.569Z,95103.94
2022-11-29T08:37:24.094Z,95095.97
2022-11-29T08:39:50.613Z,95106.56
2022-11-29T08:42:17.121Z,95104.38
2022-11-29T08:44:43.932Z,95110.31
2022-11-29T08:47:29.292Z,95107.22
2022-11-29T08:50:01.566Z,95113.16
2022-11-29T08:52:47.661Z,95110.59
2022-11-29T08:55:14.498Z,95121.31
2022-11-29T08:57:41.395Z,95125.00
2022-11-29T09:00:09.294Z,95122.81
2022-11-29T09:02:37.129Z,95128.72
2022-11-29T09:05:04.926Z,95125.06
2022-11-29T09:07:31.497Z,95132.28
2022-11-29T09:09:58.010Z,95125.16
2022-11-29T09:12:24.696Z,95125.28
2022-11-29T09:14:51.242Z,95115.66
2022-11-29T09:17:17.768Z,95129.25
2022-11-29T09:19:44.239Z,95125.44
2022-11-29T09:22:10.931Z,95123.19
2022-11-29T09:24:37.407Z,95121.75
2022-11-29T09:27:04.458Z,95137.41
2022-11-29T09:29:31.141Z,95125.97
2022-11-29T09:31:57.792Z,95137.63
2022-11-29T09:34:24.665Z,95143.44
2022-11-29T09:36:51.600Z,95145.28
2022-11-29T09:39:18.157Z,95147.88
2022-11-29T09:42:23.940Z,95150.09
2022-11-29T09:45:01.899Z,95153.84
2022-11-29T09:47:33.105Z,95153.13
2022-11-29T09:50:24.594Z,95156.97
2022-11-29T09:52:57.201Z,95155.41
2022-11-29T09:55:48.486Z,95159.53
2022-11-29T09:58:23.168Z,95154.03
2022-11-29T10:00:53.441Z,95158.50
2022-11-29T10:03:25.540Z,95152.44
2022-11-29T10:06:01.020Z,95154.41
2022-11-29T10:08:38.382Z,95137.53
2022-11-29T10:11:28.256Z,95147.34
2022-11-29T10:14:05.945Z,95140.16
2022-11-29T10:17:14.141Z,95138.19
2022-11-29T10:19:50.810Z,95147.50
2022-11-29T10:22:21.462Z,95143.66
2022-11-29T10:24:52.330Z,95140.56
2022-11-29T10:27:23.217Z,95142.94
2022-11-29T10:29:51.280Z,95139.97
2022-11-29T10:32:21.372Z,95136.47
2022-11-29T10:34:49.504Z,95136.94
2022-11-29T10:37:20.918Z,95133.56
2022-11-29T10:39:50.770Z,95132.09
2022-11-29T10:42:45.528Z,95129.47
2022-11-29T10:45:24.688Z,95124.19
2022-11-29T10:47:53.861Z,95132.47
2022-11-29T10:50:26.496Z,95123.75
2022-11-29T10:53:01.394Z,95132.84
2022-11-29T10:55:34.915Z,95123.44
2022-11-29T10:58:22.068Z,95128.66
2022-11-29T11:00:58.888Z,95121.88
2022-11-29T11:03:33.825Z,95124.91
2022-11-29T11:06:03.022Z,95119.28
2022-11-29T11:08:31.541Z,95118.91
2022-11-29T11:11:01.756Z,95121.00
2022-11-29T11:13:31.103Z,95123.94
2022-11-29T11:16:19.529Z,95116.16
2022-11-29T11:18:48.026Z,95111.22
2022-11-29T11:21:18.597Z,95106.47
2022-11-29T11:23:53.477Z,95124.94
2022-11-29T11:26:20.420Z,95120.78
2022-11-29T11:28:46.846Z,95121.16
2022-11-29T11:31:14.144Z,95119.28
2022-11-29T11:33:43.046Z,95104.63
2022-11-29T11:36:21.583Z,95119.69
2022-11-29T11:39:11.611Z,95116.28
2022-11-29T11:42:00.938Z,95111.34
2022-11-29T11:44:50.033Z,95111.38
2022-11-29T11:47:29.493Z,95115.84
2022-11-29T11:50:05.085Z,95113.22
2022-11-29T11:52:43.823Z,95111.38
2022-11-29T11:55:21.449Z,95110.16
2022-11-29T11:58:14.367Z,95120.38
2022-11-29T12:01:02.797Z,95111.94
2022-11-29T12:03:49.351Z,95117.56
2022-11-29T12:06:43.933Z,95125.59
2022-11-29T12:09:28.743Z,95115.06
2022-11-29T12:12:10.454Z,95127.84
2022-11-29T12:15:00.006Z,95118.03
2022-11-29T12:17:46.609Z,95123.94
2022-11-29T12:20:13.363Z,95128.63
2022-11-29T12:22:48.674Z,95121.78
2022-11-29T12:25:21.838Z,95114.94
2022-11-29T12:27:51.759Z,95107.56
2022-11-29T12:30:19.438Z,95115.88
2022-11-29T12:33:06.945Z,95138.47
2022-11-29T12:35:50.133Z,95133.22
2022-11-29T12:38:32.120Z,95133.97
2022-11-29T12:41:01.668Z,95134.72
2022-11-29T12:43:45.601Z,95133.22
2022-11-29T12:46:22.903Z,95123.44
2022-11-29T12:49:06.582Z,95134.34
2022-11-29T12:52:01.271Z,95136.91
2022-11-29T12:54:39.890Z,95133.91
2022-11-29T12:57:23.830Z,95130.16
2022-11-29T13:00:07.723Z,95141.47
2022-11-29T13:03:04.146Z,95134.72
2022-11-29T13:06:01.533Z,95126.81
2022-11-29T13:09:23.663Z,95135.47
2022-11-29T13:11:55.811Z,95131.72
2022-11-29T13:14:49.767Z,95142.22
2022-11-29T13:17:48.750Z,95144.13
2022-11-29T13:20:33.904Z,95143.75
2022-11-29T13:23:08.858Z,95132.09
2022-11-29T13:25:46.886Z,95148.25
2022-11-29T13:28:33.049Z,95144.50
2022-11-29T13:31:06.838Z,95133.59
2022-11-29T13:34:01.841Z,95142.63
2022-11-29T13:36:43.585Z,95146.38
2022-11-29T13:39:41.048Z,95145.25
2022-11-29T13:42:17.560Z,95139.97
2022-11-29T13:44:50.176Z,95145.25
2022-11-29T13:47:19.359Z,95133.97
2022-11-29T13:49:52.856Z,95139.22
2022-11-29T13:52:41.571Z,95149.75
2022-11-29T13:55:23.281Z,95139.97
2022-11-29T14:00:42.330Z,95148.28
2022-11-29T14:03:24.202Z,95147.13
2022-11-29T14:05:53.197Z,95149.00
2022-11-29T14:08:54.485Z,95152.00
2022-11-29T14:11:27.292Z,95155.00
2022-11-29T14:14:01.113Z,95150.16
2022-11-29T14:16:36.484Z,95152.00
2022-11-29T14:19:21.089Z,95154.28
2022-11-29T14:21:56.949Z,95152.78
2022-11-29T14:24:32.513Z,95158.03
2022-11-29T14:27:21.732Z,95157.69
2022-11-29T14:29:52.693Z,95157.66
2022-11-29T14:32:28.888Z,95160.69
2022-11-29T14:35:02.063Z,95159.19
2022-11-29T14:37:53.399Z,95160.31
2022-11-29T14:40:40.156Z,95159.91
2022-11-29T14:43:34.448Z,95136.22
2022-11-29T14:46:08.375Z,95149.38
2022-11-29T14:48:35.950Z,95151.19
2022-11-29T14:51:16.168Z,95154.94
2022-11-29T14:53:46.001Z,95148.97
2022-11-29T14:56:35.275Z,95161.75
2022-11-29T14:59:41.617Z,95162.53
2022-11-29T15:02:29.628Z,95166.59
2022-11-29T15:04:57.464Z,95151.13
2022-11-29T15:07:29.468Z,95162.31
2022-11-29T15:10:05.306Z,95170.97
2022-11-29T15:12:37.205Z,95171.66
2022-11-29T15:15:10.156Z,95178.94
2022-11-29T15:17:55.483Z,95170.31
2022-11-29T15:20:37.686Z,95171.72
2022-11-29T15:23:14.653Z,95176.16
2022-11-29T15:25:53.412Z,95164.16
2022-11-29T15:28:28.319Z,95173.16
2022-11-29T15:31:08.244Z,95174.88
2022-11-29T15:33:39.093Z,95182.97
2022-11-29T15:36:08.874Z,95171.31
2022-11-29T15:38:50.038Z,95186.72
2022-11-29T15:41:30.374Z,95180.31
2022-11-29T15:44:07.452Z,95185.69
2022-11-29T15:46:35.929Z,95183.28
2022-11-29T15:49:37.947Z,95188.63
2022-11-29T15:52:14.441Z,95174.09
2022-11-29T15:54:51.249Z,95189.03
2022-11-29T15:57:36.277Z,95189.66
2022-11-29T16:00:06.628Z,95190.13
2022-11-29T16:02:40.948Z,95185.56
2022-11-29T16:05:20.520Z,95200.56
2022-11-29T16:07:50.237Z,95200.25
2022-11-29T16:10:19.923Z,95202.56
2022-11-29T16:13:02.575Z,95190.44
2022-11-29T16:15:30.965Z,95211.53
2022-11-29T16:18:11.400Z,95205.06
2022-11-29T16:20:38.029Z,95206.19
2022-11-29T16:23:15.284Z,95192.66
2022-11-29T16:26:14.776Z,95204.66
2022-11-29T16:28:48.628Z,95198.22
2022-11-29T16:31:31.041Z,95216.69
2022-11-29T16:34:05.730Z,95209.81
2022-11-29T16:36:32.363Z,95210.50
2022-11-29T16:39:07.470Z,95215.44
2022-11-29T16:41:38.507Z,95228.00
2022-11-29T16:44:26.409Z,95207.19
2022-11-29T16:47:30.626Z,95206.59
2022-11-29T16:50:03.198Z,95226.97
2022-11-29T16:52:32.650Z,95211.19
2022-11-29T16:54:59.347Z,95217.22
2022-11-29T16:57:27.449Z,95222.09
2022-11-29T16:59:54.048Z,95207.44
2022-11-29T17:02:20.739Z,95213.88
2022-11-29T17:04:47.738Z,95211.56
2022-11-29T17:07:28.283Z,95217.81
2022-11-29T17:09:55.831Z,95212.97
2022-11-29T17:12:22.436Z,95214.06
2022-11-29T17:14:49.077Z,95211.81
2022-11-29T17:17:17.656Z,95207.28
2022-11-29T17:19:44.906Z,95208.81
2022-11-29T17:22:12.251Z,95212.38
2022-11-29T17:24:43.593Z,95203.31
2022-11-29T17:27:14.210Z,95208.97
2022-11-29T17:29:41.057Z,95228.56
2022-11-29T17:32:07.690Z,95223.22
2022-11-29T17:34:34.603Z,95202.88
2022-11-29T17:37:01.204Z,95222.13
2022-11-29T17:39:27.757Z,95224.75
2022-11-29T17:41:54.486Z,95215.53
2022-11-29T17:44:21.250Z,95211.13
2022-11-29T17:46:47.782Z,95220.78
2022-11-29T17:49:14.358Z,95223.41
2022-11-29T17:51:51.705Z,95228.03
2022-11-29T17:54:19.535Z,95225.09
2022-11-29T17:56:46.080Z,95229.69
2022-11-29T17:59:12.850Z,95232.53
2022-11-29T18:01:39.576Z,95224.28
2022-11-29T18:04:08.523Z,95215.25
2022-11-29T18:06:40.591Z,95246.00
2022-11-29T18:09:09.095Z,95246.03
2022-11-29T18:11:49.938Z,95247.72
2022-11-29T18:14:23.725Z,95234.94
2022-11-29T18:16:50.880Z,95241.88
2022-11-29T18:19:20.252Z,95242.50
2022-11-29T18:21:47.758Z,95255.94
2022-11-29T18:24:14.492Z,95259.78
2022-11-29T18:26:41.569Z,95249.91
2022-11-29T18:29:08.540Z,95252.00
2022-11-29T18:31:37.967Z,95255.81
2022-11-29T18:34:07.254Z,95254.34
2022-11-29T18:36:37.017Z,95261.41
2022-11-29T18:39:09.404Z,95247.59
2022-11-29T18:41:37.280Z,95257.28
2022-11-29T18:44:07.281Z,95248.13
2022-11-29T18:46:37.114Z,95268.53
2022-11-29T18:49:05.965Z,95270.56
2022-11-29T18:51:33.353Z,95258.09
2022-11-29T18:54:01.035Z,95261.78
2022-11-29T18:56:30.070Z,95269.66
2022-11-29T18:59:04.759Z,95277.44
2022-11-29T19:01:34.360Z,95270.78
2022-11-29T19:04:01.751Z,95273.00
2022-11-29T19:06:39.371Z,95284.00
2022-11-29T19:09:11.239Z,95283.97
2022-11-29T19:11:38.100Z,95281.25
2022-11-29T19:14:11.121Z,95283.53
2022-11-29T19:16:39.479Z,95280.25
2022-11-29T19:19:07.645Z,95286.38
2022-11-29T19:21:34.724Z,95278.22
2022-11-29T19:24:03.730Z,95285.69
2022-11-29T19:26:31.365Z,95292.38
2022-11-29T19:29:00.067Z,95285.28
2022-11-29T19:31:27.678Z,95280.66
2022-11-29T19:33:55.222Z,95285.91
2022-11-29T19:36:24.417Z,95288.22
2022-11-29T19:38:53.955Z,95281.56
2022-11-29T19:41:26.726Z,95287.59
2022-11-29T19:43:53.890Z,95289.75
2022-11-29T19:46:23.429Z,95282.84
2022-11-29T19:48:52.384Z,95290.47
2022-11-29T19:51:20.063Z,95286.78
2022-11-29T19:53:47.356Z,95292.66
2022-11-29T19:56:16.854Z,95296.38
2022-11-29T19:58:44.494Z,95288.34
2022-11-29T20:01:19.019Z,95289.34
2022-11-29T20:03:46.323Z,95292.25
2022-11-29T20:06:13.677Z,95288.53
2022-11-29T20:08:41.006Z,95287.44
2022-11-29T20:11:10.006Z,95295.91
2022-11-29T20:13:41.167Z,95294.38
2022-11-29T20:16:14.785Z,95297.38
2022-11-29T20:18:48.956Z,95295.84
2022-11-29T20:21:20.386Z,95295.50
2022-11-29T20:23:47.424Z,95299.75
2022-11-29T20:26:16.085Z,95298.59
2022-11-29T20:28:44.134Z,95295.91
2022-11-29T20:31:16.234Z,95297.09
2022-11-29T20:33:44.025Z,95296.84
2022-11-29T20:36:42.291Z,95297.75
2022-11-29T20:39:44.952Z,95299.72
2022-11-29T20:42:31.595Z,95304.63
2022-11-29T20:45:04.233Z,95300.97
2022-11-29T20:47:49.173Z,95303.84
2022-11-29T20:50:23.686Z,95306.63
2022-11-29T20:53:05.827Z,95305.88
2022-11-29T20:55:32.681Z,95309.50
2022-11-29T20:57:59.237Z,95309.09
2022-11-29T21:00:25.827Z,95309.94
2022-11-29T21:02:52.531Z,95303.66
2022-11-29T21:05:19.071Z,95305.97
2022-11-29T21:07:46.697Z,95309.25
2022-11-29T21:10:15.650Z,95309.78
2022-11-29T21:12:45.635Z,95293.00
2022-11-29T21:15:14.190Z,95312.03
2022-11-29T21:17:42.596Z,95301.31
2022-11-29T21:20:17.767Z,95309.22
2022-11-29T21:22:52.899Z,95312.66
2022-11-29T21:25:43.129Z,95305.97
2022-11-29T21:28:14.267Z,95303.66
2022-11-29T21:30:42.002Z,95309.09
2022-11-29T21:33:09.565Z,95303.56
2022-11-29T21:35:39.662Z,95309.63
2022-11-29T21:38:10.857Z,95306.69
2022-11-29T21:40:37.345Z,95315.28
2022-11-29T21:43:03.987Z,95313.63
2022-11-29T21:45:30.510Z,95305.78
2022-11-29T21:48:00.577Z,95319.31
2022-11-29T21:50:27.345Z,95310.53
2022-11-29T21:52:53.907Z,95313.84
2022-11-29T21:55:20.518Z,95308.09
2022-11-29T21:57:47.193Z,95309.66
2022-11-29T22:00:14.288Z,95310.41
2022-11-29T22:02:41.020Z,95303.41
2022-11-29T22:05:09.718Z,95317.97
2022-11-29T22:07:36.363Z,95317.06
2022-11-29T22:10:09.974Z,95321.69
2022-11-29T22:12:49.347Z,95310.94
2022-11-29T22:15:22.929Z,95313.53
2022-11-29T22:17:51.409Z,95311.72
2022-11-29T22:20:17.951Z,95320.50
2022-11-29T22:22:45.294Z,95324.53
2022-11-29T22:25:11.929Z,95325.13
2022-11-29T22:27:38.473Z,95318.69
2022-11-29T22:30:05.826Z,95310.94
2022-11-29T22:32:32.475Z,95316.06
2022-11-29T22:34:59.019Z,95317.78
2022-11-29T22:37:25.623Z,95323.38
2022-11-29T22:39:52.320Z,95320.72
2022-11-29T22:42:18.864Z,95324.03
2022-11-29T22:44:45.756Z,95318.84
2022-11-29T22:47:12.932Z,95317.56
2022-11-29T22:49:39.397Z,95306.34
2022-11-29T22:52:05.893Z,95316.84
2022-11-29T22:54:32.825Z,95319.75
2022-11-29T22:56:59.323Z,95319.75
2022-11-29T22:59:25.791Z,95323.41
2022-11-29T23:01:52.538Z,95319.56
2022-11-29T23:04:19.071Z,95320.50
2022-11-29T23:06:46.168Z,95311.72
2022-11-29T23:09:22.560Z,95317.34
2022-11-29T23:11:55.807Z,95316.53
2022-11-29T23:14:23.452Z,95315.91
2022-11-29T23:16:50.445Z,95302.06
2022-11-29T23:19:17.393Z,95301.66
2022-11-29T23:21:45.826Z,95308.22
2022-11-29T23:24:13.595Z,95312.41
2022-11-29T23:26:43.309Z,95313.00
2022-11-29T23:29:13.076Z,95316.94
2022-11-29T23:31:40.004Z,95318.94
2022-11-29T23:34:06.987Z,95323.00
2022-11-29T23:36:33.908Z,95315.38
2022-11-29T23:39:00.913Z,95312.47
2022-11-29T23:41:27.528Z,95318.53
2022-11-29T23:43:54.125Z,95323.66
2022-11-29T23:46:23.196Z,95316.25
2022-11-29T23:48:50.221Z,95304.28
2022-11-29T23:51:17.489Z,95312.88
2022-11-29T23:53:44.612Z,95305.19
2022-11-29T23:56:16.439Z,95312.34
2022-11-29T23:58:43.883Z,95314.50
